createdAt,value
2019-02-20T00:00:40.168Z,7.20
2019-02-20T00:03:10.679Z,7.10
2019-02-20T00:05:41.394Z,7.10
2019-02-20T00:08:10.457Z,7.10
2019-02-20T00:10:43.498Z,7.30
2019-02-20T00:13:10.071Z,7.20
2019-02-20T00:15:39.021Z,7.30
2019-02-20T00:18:08.077Z,7.20
2019-02-20T00:20:39.497Z,7.10
2019-02-20T00:23:08.127Z,7.10
2019-02-20T00:25:37.064Z,7.10
2019-02-20T00:28:06.087Z,7.10
2019-02-20T00:30:36.779Z,7.00
2019-02-20T00:33:05.722Z,7.10
2019-02-20T00:35:37.424Z,7.10
2019-02-20T00:38:07.848Z,7.10
2019-02-20T00:40:36.888Z,7.10
2019-02-20T00:43:05.882Z,7.10
2019-02-20T00:45:39.343Z,7.10
2019-02-20T00:48:15.555Z,7.10
2019-02-20T00:50:45.814Z,7.10
2019-02-20T00:53:20.996Z,7.10
2019-02-20T00:55:53.972Z,7.10
2019-02-20T00:58:23.494Z,7.10
2019-02-20T01:00:52.598Z,7.10
2019-02-20T01:03:21.648Z,7.10
2019-02-20T01:05:53.509Z,7.10
2019-02-20T01:08:23.762Z,7.20
2019-02-20T01:10:55.555Z,7.10
2019-02-20T01:13:24.239Z,7.10
2019-02-20T01:15:54.715Z,7.00
2019-02-20T01:18:25.227Z,7.00
2019-02-20T01:20:55.737Z,7.00
2019-02-20T01:23:24.892Z,7.20
2019-02-20T01:25:53.875Z,7.20
2019-02-20T01:28:23.156Z,7.20
2019-02-20T01:30:52.470Z,7.20
2019-02-20T01:33:24.720Z,7.10
2019-02-20T01:35:55.243Z,7.20
2019-02-20T01:38:35.031Z,7.10
2019-02-20T01:41:05.190Z,7.20
2019-02-20T01:43:37.213Z,7.20
2019-02-20T01:46:09.932Z,7.10
2019-02-20T01:48:40.567Z,7.10
2019-02-20T01:51:09.849Z,7.10
2019-02-20T01:53:41.303Z,7.00
2019-02-20T01:56:11.856Z,7.10
2019-02-20T01:58:40.810Z,7.10
2019-02-20T02:01:10.115Z,7.10
2019-02-20T02:06:29.524Z,7.00
2019-02-20T02:08:59.703Z,7.10
2019-02-20T02:12:17.746Z,6.90
2019-02-20T02:14:03.237Z,7.00
2019-02-20T02:16:32.785Z,7.00
2019-02-20T02:19:04.557Z,6.90
2019-02-20T02:21:42.491Z,7.00
2019-02-20T02:27:08.680Z,6.80
2019-02-20T02:29:39.084Z,7.00
2019-02-20T02:32:14.261Z,6.90
2019-02-20T02:34:44.732Z,6.90
2019-02-20T02:37:13.928Z,6.90
2019-02-20T02:42:54.081Z,7.00
2019-02-20T02:45:31.215Z,7.00
2019-02-20T02:48:07.447Z,6.90
2019-02-20T02:50:37.983Z,6.90
2019-02-20T02:53:06.937Z,7.10
2019-02-20T02:55:36.149Z,7.00
2019-02-20T02:58:08.386Z,7.00
2019-02-20T03:00:38.805Z,6.90
2019-02-20T03:03:07.788Z,7.00
2019-02-20T03:05:36.855Z,6.90
2019-02-20T03:08:07.303Z,6.90
2019-02-20T03:10:36.522Z,6.90
2019-02-20T03:13:09.643Z,6.90
2019-02-20T03:15:38.612Z,7.00
2019-02-20T03:18:07.562Z,7.00
2019-02-20T03:20:36.555Z,7.00
2019-02-20T03:23:05.518Z,7.00
2019-02-20T03:25:34.817Z,7.00
2019-02-20T03:28:03.995Z,7.00
2019-02-20T03:30:34.500Z,7.00
2019-02-20T03:33:03.461Z,7.00
2019-02-20T03:35:32.528Z,6.90
2019-02-20T03:38:01.864Z,7.00
2019-02-20T03:40:30.802Z,6.90
2019-02-20T03:43:00.087Z,6.80
2019-02-20T03:45:32.197Z,6.80
2019-02-20T03:48:01.185Z,6.80
2019-02-20T03:50:30.605Z,6.80
2019-02-20T03:52:59.539Z,6.70
2019-02-20T03:55:28.787Z,6.70
2019-02-20T03:57:57.961Z,6.70
2019-02-20T04:00:26.920Z,6.80
2019-02-20T04:02:56.033Z,6.70
2019-02-20T04:05:25.254Z,6.60
2019-02-20T04:07:54.204Z,6.70
2019-02-20T04:10:23.149Z,6.70
2019-02-20T04:12:55.485Z,6.70
2019-02-20T04:15:24.461Z,6.80
2019-02-20T04:17:53.409Z,6.80
2019-02-20T04:20:22.725Z,6.70
2019-02-20T04:22:51.685Z,6.70
2019-02-20T04:25:20.725Z,6.70
2019-02-20T04:27:51.207Z,6.70
2019-02-20T04:30:20.156Z,6.60
2019-02-20T04:32:50.954Z,6.70
2019-02-20T04:35:22.631Z,6.70
2019-02-20T04:37:53.857Z,6.60
2019-02-20T04:40:29.105Z,6.60
2019-02-20T04:42:59.088Z,6.60
2019-02-20T04:45:28.136Z,6.70
2019-02-20T04:47:57.649Z,6.70
2019-02-20T04:50:26.591Z,6.70
2019-02-20T04:52:55.552Z,6.80
2019-02-20T04:55:24.576Z,6.80
2019-02-20T04:58:14.139Z,6.70
2019-02-20T05:00:43.200Z,6.70
2019-02-20T05:03:12.136Z,6.70
2019-02-20T05:05:47.060Z,6.70
2019-02-20T05:08:19.266Z,6.70
2019-02-20T05:10:52.422Z,6.70
2019-02-20T05:13:23.039Z,6.70
2019-02-20T05:15:53.347Z,6.70
2019-02-20T05:18:23.912Z,6.80
2019-02-20T05:20:54.537Z,6.80
2019-02-20T05:23:25.082Z,6.80
2019-02-20T05:25:54.022Z,6.80
2019-02-20T05:28:24.430Z,6.90
2019-02-20T05:30:53.578Z,6.80
2019-02-20T05:33:22.523Z,6.70
2019-02-20T05:35:53.036Z,6.70
2019-02-20T05:38:25.063Z,6.80
2019-02-20T05:40:57.660Z,6.70
2019-02-20T05:43:27.557Z,6.80
2019-02-20T05:46:01.153Z,6.70
2019-02-20T05:48:30.180Z,6.70
2019-02-20T05:51:09.225Z,6.60
2019-02-20T05:53:53.122Z,6.50
2019-02-20T05:56:33.113Z,6.60
2019-02-20T05:59:02.139Z,6.50
2019-02-20T06:01:31.080Z,6.60
2019-02-20T06:04:00.158Z,6.60
2019-02-20T06:06:29.242Z,6.60
2019-02-20T06:09:04.381Z,6.70
2019-02-20T06:11:35.553Z,6.60
2019-02-20T06:14:06.041Z,6.70
2019-02-20T06:16:35.258Z,6.70
2019-02-20T06:19:07.159Z,6.70
2019-02-20T06:21:37.584Z,6.60
2019-02-20T06:24:13.571Z,6.60
2019-02-20T06:26:42.591Z,6.70
2019-02-20T06:29:18.328Z,6.70
2019-02-20T06:31:47.559Z,6.60
2019-02-20T06:34:16.508Z,6.60
2019-02-20T06:36:45.472Z,6.60
2019-02-20T06:39:14.568Z,6.60
2019-02-20T06:41:45.094Z,6.60
2019-02-20T06:44:20.143Z,6.50
2019-02-20T06:46:50.011Z,6.50
2019-02-20T06:49:20.864Z,6.60
2019-02-20T06:51:51.243Z,6.60
2019-02-20T06:54:22.988Z,6.40
2019-02-20T06:56:53.659Z,6.60
2019-02-20T06:59:22.936Z,6.50
2019-02-20T07:01:53.867Z,6.50
2019-02-20T07:04:22.819Z,6.50
2019-02-20T07:07:03.913Z,6.50
2019-02-20T07:09:44.373Z,6.60
2019-02-20T07:12:43.978Z,6.60
2019-02-20T07:15:34.026Z,6.60
2019-02-20T07:18:18.941Z,6.60
2019-02-20T07:21:05.344Z,6.60
2019-02-20T07:26:42.492Z,6.60
2019-02-20T07:29:52.925Z,6.70
2019-02-20T07:32:23.442Z,6.70
2019-02-20T07:34:52.435Z,6.80
2019-02-20T07:37:25.357Z,6.70
2019-02-20T07:40:13.590Z,6.80
2019-02-20T07:42:46.004Z,6.80
2019-02-20T07:45:20.056Z,6.60
2019-02-20T07:47:54.786Z,6.70
2019-02-20T07:53:15.735Z,6.80
2019-02-20T07:55:46.316Z,6.80
2019-02-20T07:58:39.987Z,6.80
2019-02-20T08:00:53.411Z,6.80
2019-02-20T08:03:26.244Z,6.90
2019-02-20T08:05:55.227Z,6.80
2019-02-20T08:08:24.169Z,6.80
2019-02-20T08:10:53.457Z,7.00
2019-02-20T08:13:22.503Z,7.10
2019-02-20T08:15:58.963Z,7.00
2019-02-20T08:18:37.372Z,7.10
2019-02-20T08:21:17.816Z,7.20
2019-02-20T08:23:56.152Z,7.00
2019-02-20T08:26:44.340Z,7.10
2019-02-20T08:29:37.019Z,7.20
2019-02-20T08:32:07.848Z,7.40
2019-02-20T08:34:37.156Z,7.30
2019-02-20T08:37:06.188Z,7.30
2019-02-20T08:39:35.139Z,7.30
2019-02-20T08:42:04.761Z,7.40
2019-02-20T08:44:33.736Z,7.20
2019-02-20T08:47:05.525Z,7.30
2019-02-20T08:49:35.910Z,7.40
2019-02-20T08:52:04.850Z,7.40
2019-02-20T08:54:35.265Z,7.20
2019-02-20T08:57:04.266Z,7.30
2019-02-20T08:59:33.390Z,7.40
2019-02-20T09:02:02.647Z,7.40
2019-02-20T09:04:32.115Z,7.70
2019-02-20T09:07:02.379Z,7.70
2019-02-20T09:09:31.386Z,7.70
2019-02-20T09:12:00.528Z,7.70
2019-02-20T09:14:29.493Z,7.70
2019-02-20T09:16:59.249Z,7.80
2019-02-20T09:19:28.551Z,7.80
2019-02-20T09:21:57.532Z,7.80
2019-02-20T09:24:26.559Z,8.00
2019-02-20T09:26:55.593Z,8.00
2019-02-20T09:29:26.099Z,8.10
2019-02-20T09:31:55.039Z,8.00
2019-02-20T09:34:24.267Z,7.80
2019-02-20T09:36:54.255Z,8.00
2019-02-20T09:39:31.954Z,8.10
2019-02-20T09:42:01.006Z,8.10
2019-02-20T09:44:32.677Z,8.10
2019-02-20T09:47:01.778Z,8.00
2019-02-20T09:49:30.709Z,8.00
2019-02-20T09:52:00.537Z,8.10
2019-02-20T09:54:29.832Z,8.20
2019-02-20T09:57:00.249Z,8.30
2019-02-20T09:59:29.193Z,8.40
2019-02-20T10:01:58.273Z,8.20
2019-02-20T10:04:27.220Z,8.20
2019-02-20T10:06:56.603Z,8.20
2019-02-20T10:09:25.759Z,8.50
2019-02-20T10:11:56.142Z,8.50
2019-02-20T10:14:28.028Z,8.60
2019-02-20T10:16:57.179Z,8.50
2019-02-20T10:19:29.187Z,8.30
2019-02-20T10:22:04.330Z,8.30
2019-02-20T10:24:34.923Z,8.40
2019-02-20T10:27:04.474Z,8.40
2019-02-20T10:29:34.431Z,8.50
2019-02-20T10:32:03.637Z,8.50
2019-02-20T10:34:33.621Z,8.60
2019-02-20T10:37:02.821Z,8.40
2019-02-20T10:39:33.092Z,8.70
2019-02-20T10:42:03.593Z,8.70
2019-02-20T10:44:32.531Z,8.40
2019-02-20T10:47:03.063Z,8.40
2019-02-20T10:49:32.247Z,8.50
2019-02-20T10:52:03.030Z,8.50
2019-02-20T10:54:36.609Z,8.70
2019-02-20T10:57:05.552Z,8.60
2019-02-20T10:59:37.158Z,8.40
2019-02-20T11:02:09.497Z,8.50
2019-02-20T11:04:38.475Z,8.60
2019-02-20T11:07:07.550Z,8.70
2019-02-20T11:09:46.341Z,8.70
2019-02-20T11:12:18.551Z,8.70
2019-02-20T11:14:53.624Z,8.60
2019-02-20T11:17:22.566Z,8.60
2019-02-20T11:19:51.508Z,8.70
2019-02-20T11:22:22.013Z,8.80
2019-02-20T11:24:55.437Z,8.60
2019-02-20T11:27:21.664Z,8.60
2019-02-20T11:29:51.555Z,8.60
2019-02-20T11:32:21.345Z,8.70
2019-02-20T11:34:50.394Z,8.90
2019-02-20T11:37:19.587Z,9.00
2019-02-20T11:39:48.519Z,9.40
2019-02-20T11:42:18.089Z,9.40
2019-02-20T11:44:48.718Z,9.50
2019-02-20T11:47:19.131Z,9.30
2019-02-20T11:49:58.480Z,9.20
2019-02-20T11:52:39.363Z,9.10
2019-02-20T11:58:37.063Z,8.80
2019-02-20T12:01:07.829Z,8.70
2019-02-20T12:03:36.884Z,8.70
2019-02-20T12:06:06.929Z,8.70
2019-02-20T12:08:37.430Z,8.80
2019-02-20T12:11:12.368Z,8.90
2019-02-20T12:13:52.124Z,9.10
2019-02-20T12:16:21.268Z,9.30
2019-02-20T12:18:57.756Z,9.50
2019-02-20T12:21:34.766Z,9.70
2019-02-20T12:24:05.120Z,9.50
2019-02-20T12:26:39.999Z,9.50
2019-02-20T12:29:11.280Z,9.20
2019-02-20T12:31:41.841Z,9.20
2019-02-20T12:34:24.349Z,9.10
2019-02-20T12:36:56.217Z,9.00
2019-02-20T12:40:06.379Z,9.00
2019-02-20T12:42:59.301Z,9.20
2019-02-20T12:45:34.149Z,9.40
2019-02-20T12:48:12.150Z,9.50
2019-02-20T12:50:49.620Z,10.00
2019-02-20T12:53:25.783Z,10.10
2019-02-20T13:02:11.600Z,10.00
2019-02-20T13:10:35.335Z,10.00
2019-02-20T13:13:08.402Z,9.80
2019-02-20T13:15:38.105Z,9.70
2019-02-20T13:18:14.822Z,9.40
2019-02-20T13:20:45.328Z,9.60
2019-02-20T13:23:20.096Z,9.60
2019-02-20T13:25:51.396Z,9.40
2019-02-20T13:28:22.828Z,9.70
2019-02-20T13:30:57.226Z,9.50
2019-02-20T13:33:27.813Z,9.80
2019-02-20T13:38:57.395Z,9.90
2019-02-20T13:41:24.745Z,10.50
2019-02-20T13:43:55.915Z,10.40
2019-02-20T13:46:26.821Z,10.50
2019-02-20T13:48:59.187Z,9.90
2019-02-20T13:51:32.340Z,10.10
2019-02-20T13:54:03.392Z,10.20
2019-02-20T13:56:33.879Z,10.20
2019-02-20T13:59:04.369Z,10.50
2019-02-20T14:01:35.282Z,10.50
2019-02-20T14:04:09.729Z,10.40
2019-02-20T14:06:44.649Z,10.80
2019-02-20T14:09:16.179Z,11.00
2019-02-20T14:11:46.709Z,10.90
2019-02-20T14:14:20.228Z,10.60
2019-02-20T14:16:51.912Z,10.80
2019-02-20T14:19:22.439Z,11.00
2019-02-20T14:21:55.170Z,11.40
2019-02-20T14:24:27.758Z,11.40
2019-02-20T14:27:10.271Z,11.20
2019-02-20T14:29:32.295Z,10.90
2019-02-20T14:32:02.456Z,10.70
2019-02-20T14:34:31.783Z,10.80
2019-02-20T14:37:00.749Z,11.30
2019-02-20T14:39:30.394Z,11.70
2019-02-20T14:42:00.977Z,11.30
2019-02-20T14:44:32.705Z,11.80
2019-02-20T14:47:02.741Z,12.10
2019-02-20T14:49:33.591Z,11.30
2019-02-20T14:52:02.702Z,11.10
2019-02-20T14:54:33.128Z,11.30
2019-02-20T14:57:19.197Z,11.10
2019-02-20T14:59:45.791Z,11.00
2019-02-20T15:02:16.571Z,11.10
2019-02-20T15:05:02.657Z,10.80
2019-02-20T15:07:33.716Z,10.30
2019-02-20T15:10:03.183Z,10.20
2019-02-20T15:12:32.136Z,10.20
2019-02-20T15:15:10.145Z,10.20
2019-02-20T15:17:31.741Z,10.20
2019-02-20T15:20:16.617Z,10.00
2019-02-20T15:22:50.887Z,10.10
2019-02-20T15:25:31.800Z,10.00
2019-02-20T15:28:04.941Z,10.20
2019-02-20T15:30:39.691Z,10.20
2019-02-20T15:34:15.572Z,10.10
2019-02-20T15:38:37.843Z,9.90
2019-02-20T15:41:22.273Z,9.90
2019-02-20T15:43:51.567Z,9.90
2019-02-20T15:46:25.215Z,9.90
2019-02-20T15:49:03.656Z,9.90
2019-02-20T15:51:35.022Z,9.90
2019-02-20T15:54:14.044Z,9.90
2019-02-20T15:56:40.748Z,9.70
2019-02-20T15:59:16.151Z,9.70
2019-02-20T16:02:02.510Z,9.60
2019-02-20T16:04:30.670Z,9.60
2019-02-20T16:07:08.676Z,9.70
2019-02-20T16:09:39.162Z,9.70
2019-02-20T16:12:12.503Z,9.80
2019-02-20T16:14:53.475Z,9.70
2019-02-20T16:17:28.306Z,9.80
2019-02-20T16:19:57.522Z,9.90
2019-02-20T16:22:28.390Z,9.80
2019-02-20T16:25:01.126Z,9.80
2019-02-20T16:27:32.236Z,9.80
2019-02-20T16:30:05.738Z,9.70
2019-02-20T16:32:34.737Z,9.60
2019-02-20T16:35:07.704Z,9.40
2019-02-20T16:37:39.447Z,9.40
2019-02-20T16:40:13.703Z,9.30
2019-02-20T16:42:42.985Z,9.30
2019-02-20T16:45:20.274Z,9.40
2019-02-20T16:47:50.000Z,9.40
2019-02-20T16:50:19.087Z,9.40
2019-02-20T16:52:48.336Z,9.30
2019-02-20T16:55:55.689Z,9.30
2019-02-20T16:57:59.031Z,9.20
2019-02-20T17:00:48.751Z,9.30
2019-02-20T17:03:28.426Z,9.40
2019-02-20T17:06:07.114Z,9.40
2019-02-20T17:08:43.907Z,9.40
2019-02-20T17:11:17.299Z,9.40
2019-02-20T17:13:49.481Z,9.60
2019-02-20T17:16:24.449Z,9.40
2019-02-20T17:19:00.286Z,9.30
2019-02-20T17:21:48.342Z,9.30
2019-02-20T17:24:23.380Z,9.40
2019-02-20T17:26:54.360Z,9.40
2019-02-20T17:29:28.447Z,9.40
2019-02-20T17:32:00.489Z,9.30
2019-02-20T17:34:35.730Z,9.40
2019-02-20T17:37:07.872Z,9.40
2019-02-20T17:39:44.437Z,9.40
2019-02-20T17:42:18.373Z,9.40
2019-02-20T17:44:52.237Z,9.30
2019-02-20T17:47:27.587Z,9.30
2019-02-20T17:50:05.837Z,9.30
2019-02-20T17:52:39.546Z,9.20
2019-02-20T17:55:16.866Z,9.20
2019-02-20T17:57:51.050Z,9.40
2019-02-20T18:00:29.867Z,9.40
2019-02-20T18:05:56.051Z,9.30
2019-02-20T18:08:32.351Z,9.50
2019-02-20T18:11:04.552Z,9.40
2019-02-20T18:13:46.609Z,9.30
2019-02-20T18:16:17.153Z,9.30
2019-02-20T18:18:58.427Z,9.40
2019-02-20T18:21:36.491Z,9.30
2019-02-20T18:24:13.985Z,9.40
2019-02-20T18:30:07.196Z,9.30
2019-02-20T18:35:09.466Z,9.20
2019-02-20T18:37:44.609Z,9.10
2019-02-20T18:40:42.685Z,9.10
2019-02-20T18:43:06.936Z,9.20
2019-02-20T18:45:37.569Z,9.20
2019-02-20T18:48:09.503Z,9.10
2019-02-20T18:50:40.429Z,9.10
2019-02-20T18:53:18.738Z,9.20
2019-02-20T18:55:57.589Z,9.30
2019-02-20T18:58:37.951Z,9.20
2019-02-20T19:01:13.032Z,9.10
2019-02-20T19:03:53.894Z,9.10
2019-02-20T19:07:09.908Z,9.10
2019-02-20T19:08:57.590Z,9.10
2019-02-20T19:15:11.855Z,9.00
2019-02-20T19:17:25.270Z,9.10
2019-02-20T19:20:23.929Z,9.20
2019-02-20T19:23:22.667Z,9.20
2019-02-20T19:26:33.186Z,9.10
2019-02-20T19:29:01.234Z,9.30
2019-02-20T19:32:09.992Z,9.30
2019-02-20T19:35:21.424Z,9.30
2019-02-20T19:38:37.122Z,9.30
2019-02-20T19:41:09.022Z,9.20
2019-02-20T19:43:53.242Z,9.30
2019-02-20T19:46:39.919Z,9.40
2019-02-20T19:49:22.780Z,9.40
2019-02-20T19:52:15.220Z,9.40
2019-02-20T19:58:23.526Z,9.40
2019-02-20T20:01:26.688Z,9.30
2019-02-20T20:04:11.199Z,9.30
2019-02-20T20:06:48.517Z,9.20
2019-02-20T20:09:42.002Z,9.10
2019-02-20T20:12:12.883Z,9.00
2019-02-20T20:14:59.584Z,9.10
2019-02-20T20:17:36.808Z,9.00
2019-02-20T20:20:19.145Z,9.00
2019-02-20T20:23:08.270Z,9.00
2019-02-20T20:29:23.934Z,9.10
2019-02-20T20:31:59.953Z,9.10
2019-02-20T20:35:18.526Z,8.90
2019-02-20T20:38:20.225Z,9.00
2019-02-20T20:41:09.203Z,8.90
2019-02-20T20:44:14.351Z,8.90
2019-02-20T20:46:59.284Z,8.80
2019-02-20T20:49:58.148Z,8.90
2019-02-20T20:52:59.848Z,9.00
2019-02-20T20:55:51.281Z,8.90
2019-02-20T20:58:50.687Z,8.90
2019-02-20T21:01:42.566Z,8.90
2019-02-20T21:06:19.577Z,8.90
2019-02-20T21:13:36.579Z,8.90
2019-02-20T21:16:26.175Z,9.00
2019-02-20T21:19:21.014Z,9.10
2019-02-20T21:22:53.098Z,9.10
2019-02-20T21:24:34.892Z,9.00
2019-02-20T21:27:29.453Z,9.10
2019-02-20T21:30:13.461Z,9.00
2019-02-20T21:33:13.109Z,9.10
2019-02-20T21:36:23.193Z,9.10
2019-02-20T21:39:02.680Z,9.10
2019-02-20T21:41:45.808Z,9.00
2019-02-20T21:44:53.689Z,9.10
2019-02-20T21:47:45.807Z,9.10
2019-02-20T21:50:32.300Z,9.10
2019-02-20T21:53:29.996Z,9.00
2019-02-20T21:56:13.072Z,9.00
2019-02-20T21:58:56.900Z,8.90
2019-02-20T22:01:35.103Z,8.90
2019-02-20T22:04:12.189Z,8.80
2019-02-20T22:07:15.056Z,8.80
2019-02-20T22:10:17.023Z,8.70
2019-02-20T22:13:22.142Z,8.80
2019-02-20T22:19:04.165Z,8.90
2019-02-20T22:21:55.250Z,8.90
2019-02-20T22:24:52.624Z,8.90
2019-02-20T22:27:45.576Z,8.70
2019-02-20T22:30:26.872Z,8.80
2019-02-20T22:33:08.864Z,8.70
2019-02-20T22:36:02.844Z,8.70
2019-02-20T22:38:58.286Z,8.80
2019-02-20T22:41:53.186Z,8.80
2019-02-20T22:44:58.558Z,8.70
2019-02-20T22:47:55.336Z,8.70
2019-02-20T22:52:41.023Z,8.70
2019-02-20T22:54:13.517Z,8.70
2019-02-20T22:56:57.110Z,8.70
2019-02-20T23:00:01.976Z,8.80
2019-02-20T23:02:47.038Z,8.70
2019-02-20T23:08:35.824Z,8.70
2019-02-20T23:11:23.162Z,8.80
2019-02-20T23:14:18.277Z,8.80
2019-02-20T23:16:53.141Z,8.70
2019-02-20T23:19:39.898Z,8.70
2019-02-20T23:22:01.204Z,8.60
2019-02-20T23:24:34.080Z,8.60
2019-02-20T23:27:06.678Z,8.60
2019-02-20T23:29:36.011Z,8.70
2019-02-20T23:32:32.000Z,8.60
2019-02-20T23:34:46.456Z,8.70
2019-02-20T23:37:15.359Z,8.70
2019-02-20T23:39:45.729Z,8.60
2019-02-20T23:42:16.616Z,8.70
2019-02-20T23:44:50.213Z,8.60
2019-02-20T23:47:21.504Z,8.60
2019-02-20T23:49:57.008Z,8.50
2019-02-20T23:52:29.538Z,8.60
2019-02-20T23:55:01.253Z,8.50
2019-02-20T23:57:35.313Z,8.40
